Time;durP1;ratioP1;P1;durP2;ratioP2;P2;SDS_P1;SDS_P2;PMS_P1;PMS_P2;Temp;Humidity;BMP_temperature;BMP_pressure;BME280_temperature;BME280_humidity;BME280_pressure;Samples;Min_cycle;Max_cycle;Signal;HPM_P1;HPM_P2
2021/12/04 00:03:08;;;;;;;13.15;8.20;;;8.20;82.90;;;;;;10788326;33;20032;-70
2021/12/04 00:09:11;;;;;;;10.55;7.60;;;8.10;83.10;;;;;;10788915;33;20042;-70
2021/12/04 00:15:14;;;;;;;11.90;8.43;;;8.20;82.60;;;;;;10788789;33;20043;-70
2021/12/04 00:21:16;;;;;;;12.27;6.95;;;8.20;82.80;;;;;;10788491;33;20325;-70
2021/12/04 00:27:18;;;;;;;9.70;6.65;;;8.20;82.30;;;;;;10788546;33;20396;-70
2021/12/04 00:33:24;;;;;;;10.88;7.87;;;8.10;82.40;;;;;;10788335;33;20059;-70
2021/12/04 00:52:08;;;;;;;12.60;9.23;;;8.10;82.70;;;;;;10783794;33;20054;-70
2021/12/04 00:58:10;;;;;;;12.30;7.57;;;8.00;82.60;;;;;;10787775;33;20021;-70
2021/12/04 01:04:16;;;;;;;9.35;6.57;;;7.90;82.20;;;;;;10787246;33;20020;-69
2021/12/04 01:10:18;;;;;;;10.85;6.40;;;7.90;82.20;;;;;;10787625;33;20024;-69
2021/12/04 01:16:20;;;;;;;8.70;6.70;;;7.90;82.60;;;;;;10792405;33;20035;-70
2021/12/04 01:22:22;;;;;;;10.35;6.75;;;7.90;82.70;;;;;;10789544;33;20020;-70
2021/12/04 01:28:24;;;;;;;9.82;5.37;;;7.90;82.10;;;;;;10793552;33;20048;-70
2021/12/04 01:34:26;;;;;;;8.93;6.00;;;7.90;82.00;;;;;;10793495;33;20035;-70
2021/12/04 01:40:29;;;;;;;9.82;6.62;;;7.90;82.10;;;;;;10793130;33;20017;-70
2021/12/04 01:46:32;;;;;;;8.20;6.03;;;7.80;81.90;;;;;;10558780;27;12144848;-70
2021/12/04 01:52:34;;;;;;;11.18;7.22;;;7.80;81.70;;;;;;10944316;32;20085;-70
2021/12/04 01:58:37;;;;;;;8.85;4.90;;;7.80;81.60;;;;;;10927269;32;20023;-70
2021/12/04 02:04:40;;;;;;;7.47;4.35;;;7.80;81.80;;;;;;10943714;32;20026;-70
2021/12/04 02:10:43;;;;;;;9.82;5.30;;;7.70;81.90;;;;;;10878185;32;20019;-70
2021/12/04 02:16:46;;;;;;;9.50;6.07;;;7.50;82.20;;;;;;10828872;33;20024;-70
2021/12/04 02:22:49;;;;;;;8.32;4.70;;;7.60;82.60;;;;;;10828693;33;20024;-70
2021/12/04 02:28:51;;;;;;;7.80;4.57;;;7.70;82.50;;;;;;10828092;32;20027;-69
2021/12/04 02:34:53;;;;;;;6.30;4.25;;;7.60;82.40;;;;;;10828418;33;20381;-70
2021/12/04 02:40:57;;;;;;;10.55;4.97;;;7.50;82.30;;;;;;10828195;33;20054;-70
2021/12/04 02:46:59;;;;;;;6.85;3.83;;;7.60;82.70;;;;;;10828161;33;20012;-70
2021/12/04 02:53:02;;;;;;;5.43;3.65;;;7.60;82.80;;;;;;10878694;32;20012;-70
2021/12/04 02:59:04;;;;;;;10.93;6.97;;;7.60;82.70;;;;;;10827774;33;20020;-70
2021/12/04 03:05:09;;;;;;;7.32;4.57;;;7.50;82.60;;;;;;10827638;33;20208;-70
2021/12/04 03:11:11;;;;;;;7.30;4.87;;;7.50;82.60;;;;;;10827443;33;20070;-70
2021/12/04 03:17:16;;;;;;;8.57;5.03;;;7.40;82.50;;;;;;10827110;33;20054;-70
2021/12/04 03:23:28;;;;;;;8.57;4.82;;;7.50;82.70;;;;;;10825429;33;20023;-70
2021/12/04 03:29:32;;;;;;;6.78;3.92;;;7.50;83.00;;;;;;10826899;33;20356;-70
2021/12/04 03:40:04;;;;;;;7.65;4.80;;;7.50;82.80;;;;;;10826237;32;20043;-70
2021/12/04 03:42:05;;;;;;;7.30;5.12;;;7.40;82.80;;;;;;10826994;32;20055;-70
2021/12/04 03:48:18;;;;;;;6.70;3.92;;;7.30;82.70;;;;;;10876751;32;20028;-70
2021/12/04 03:54:20;;;;;;;6.40;4.57;;;7.30;82.60;;;;;;10876807;32;20062;-70
2021/12/04 04:00:27;;;;;;;5.05;3.45;;;7.30;82.60;;;;;;10876372;32;20101;-70
2021/12/04 04:06:30;;;;;;;6.20;3.53;;;7.30;82.60;;;;;;10824012;33;20422;-70
2021/12/04 04:12:32;;;;;;;9.05;5.12;;;7.30;82.60;;;;;;10825931;33;20342;-69
2021/12/04 04:18:34;;;;;;;6.87;4.82;;;7.30;82.60;;;;;;10876006;32;20055;-69
2021/12/04 04:24:36;;;;;;;6.80;4.03;;;7.30;82.70;;;;;;10825290;33;20042;-70
2021/12/04 04:30:39;;;;;;;6.97;3.50;;;7.40;82.80;;;;;;10825161;33;20380;-69
2021/12/04 04:36:49;;;;;;;7.25;4.25;;;7.30;83.00;;;;;;10875745;32;20054;-69
2021/12/04 05:14:26;;;;;;;7.70;4.43;;;7.20;83.20;;;;;;10823974;33;20043;-70
2021/12/04 05:20:34;;;;;;;8.77;5.18;;;7.20;83.10;;;;;;10824053;33;20396;-70
2021/12/04 05:26:36;;;;;;;7.12;4.00;;;7.20;83.20;;;;;;10823801;33;20019;-70
2021/12/04 05:32:38;;;;;;;7.47;4.15;;;7.20;83.20;;;;;;10823849;33;20024;-70
2021/12/04 05:38:42;;;;;;;7.87;4.57;;;7.10;83.10;;;;;;10823634;33;20047;-70
2021/12/04 05:44:45;;;;;;;9.23;6.32;;;7.00;83.10;;;;;;10874009;32;20348;-69
2021/12/04 05:56:55;;;;;;;8.60;5.22;;;6.90;83.20;;;;;;10823285;33;20081;-69
2021/12/04 06:02:57;;;;;;;6.78;4.00;;;6.80;83.10;;;;;;10827332;32;20028;-70
2021/12/04 06:08:59;;;;;;;8.90;4.78;;;6.80;82.90;;;;;;10828681;33;20067;-70
2021/12/04 06:15:03;;;;;;;7.37;4.47;;;6.70;83.00;;;;;;10828980;33;20024;-70
2021/12/04 06:27:27;;;;;;;6.47;4.57;;;6.70;82.70;;;;;;10824656;33;20040;-70
2021/12/04 06:33:29;;;;;;;8.18;4.75;;;6.60;83.00;;;;;;10824293;33;20070;-69
2021/12/04 06:39:31;;;;;;;8.65;5.05;;;6.70;83.00;;;;;;10827981;33;20305;-70
2021/12/04 06:45:36;;;;;;;7.50;3.90;;;6.70;83.00;;;;;;10828265;33;20024;-70
2021/12/04 06:51:42;;;;;;;8.82;5.87;;;6.70;83.00;;;;;;10878446;32;20043;-70
2021/12/04 06:57:46;;;;;;;6.30;3.62;;;6.70;83.00;;;;;;10827778;33;20020;-70
2021/12/04 07:03:49;;;;;;;14.65;3.97;;;6.70;83.00;;;;;;10827434;33;20046;-70
2021/12/04 07:09:51;;;;;;;9.00;4.97;;;6.80;83.00;;;;;;10827344;32;20024;-70
2021/12/04 07:16:01;;;;;;;7.22;4.07;;;6.80;83.00;;;;;;10878030;32;20020;-70
2021/12/04 07:22:04;;;;;;;6.72;4.03;;;6.80;83.00;;;;;;10827062;33;20043;-69
2021/12/04 07:28:06;;;;;;;9.35;6.53;;;6.70;83.20;;;;;;10874710;32;20042;-69
2021/12/04 07:34:08;;;;;;;9.68;5.53;;;6.70;83.30;;;;;;10826606;33;20025;-69
2021/12/04 07:40:11;;;;;;;9.55;5.70;;;6.90;83.10;;;;;;10826742;33;20012;-69
2021/12/04 07:46:14;;;;;;;8.15;4.87;;;6.90;83.20;;;;;;10826426;33;20051;-69
2021/12/04 07:52:16;;;;;;;6.75;5.12;;;6.90;83.20;;;;;;10876845;32;20419;-69
2021/12/04 07:58:18;;;;;;;7.45;4.82;;;6.90;83.20;;;;;;10824946;33;20051;-69
2021/12/04 08:04:20;;;;;;;5.45;3.45;;;6.90;83.20;;;;;;10825609;33;20021;-69
2021/12/04 08:10:23;;;;;;;7.62;4.68;;;6.90;83.50;;;;;;10825448;33;20051;-69
2021/12/04 08:16:25;;;;;;;9.10;5.57;;;6.90;83.80;;;;;;10825421;33;20180;-69
2021/12/04 08:22:27;;;;;;;8.38;5.75;;;7.00;83.80;;;;;;10824656;32;20059;-69
2021/12/04 08:28:29;;;;;;;12.98;8.45;;;7.20;83.90;;;;;;10875709;32;20201;-69
2021/12/04 08:34:31;;;;;;;10.73;6.75;;;7.30;84.20;;;;;;10825069;33;20047;-69
2021/12/04 08:40:34;;;;;;;8.52;5.72;;;7.20;84.10;;;;;;10824752;33;20047;-69
2021/12/04 08:46:38;;;;;;;8.38;5.85;;;7.20;84.30;;;;;;10824632;33;20028;-69
2021/12/04 08:52:40;;;;;;;7.25;4.28;;;7.30;84.40;;;;;;10820418;33;20050;-69
2021/12/04 08:58:43;;;;;;;6.97;4.28;;;7.30;84.30;;;;;;10824497;33;20033;-69
2021/12/04 09:04:46;;;;;;;7.25;4.90;;;7.30;84.30;;;;;;10874801;32;20051;-69
2021/12/04 09:10:50;;;;;;;18.60;6.07;;;7.30;84.00;;;;;;10824268;33;20011;-70
2021/12/04 09:16:53;;;;;;;10.63;5.93;;;7.40;84.30;;;;;;10824260;33;20403;-69
2021/12/04 09:22:56;;;;;;;6.65;3.30;;;7.40;84.40;;;;;;10874658;32;20055;-69
2021/12/04 09:29:10;;;;;;;5.35;2.95;;;7.40;84.10;;;;;;10821824;33;20039;-69
2021/12/04 10:32:02;;;;;;;6.12;4.28;;;7.90;84.30;;;;;;10828706;33;20047;-72
2021/12/04 10:38:04;;;;;;;8.50;5.37;;;8.10;84.10;;;;;;10828342;33;20052;-73
2021/12/04 10:44:22;;;;;;;6.28;3.20;;;8.10;83.70;;;;;;10822148;33;20067;-73
2021/12/04 10:50:37;;;;;;;6.82;4.55;;;8.20;83.70;;;;;;10823135;33;20340;-72
2021/12/04 11:02:59;;;;;;;6.87;3.53;;;8.30;83.40;;;;;;10798510;33;20068;-73
2021/12/04 11:22:11;;;;;;;8.50;4.62;;;8.50;83.30;;;;;;10793904;33;20471;-68
2021/12/04 11:46:45;;;;;;;7.50;4.87;;;8.30;81.70;;;;;;10788955;32;20075;-73
2021/12/04 11:52:52;;;;;;;9.65;5.47;;;8.20;81.70;;;;;;10789544;33;20017;-72
2021/12/04 11:58:55;;;;;;;6.30;3.62;;;8.10;81.90;;;;;;10788584;33;20025;-72
2021/12/04 12:04:57;;;;;;;7.28;3.95;;;8.10;81.80;;;;;;10796363;33;20067;-72
2021/12/04 12:11:09;;;;;;;5.68;3.90;;;8.20;82.10;;;;;;10818455;33;20403;-72
2021/12/04 12:17:12;;;;;;;7.43;3.45;;;8.20;82.30;;;;;;10807500;33;20054;-72
2021/12/04 12:23:18;;;;;;;12.55;7.90;;;8.20;82.10;;;;;;10818695;32;20044;-68
2021/12/04 12:36:19;;;;;;;7.47;4.55;;;8.00;82.20;;;;;;10824492;33;20023;-72
2021/12/04 12:42:31;;;;;;;5.85;3.50;;;8.10;82.50;;;;;;10873663;32;20032;-72
2021/12/04 12:49:16;;;;;;;7.53;3.97;;;8.20;82.70;;;;;;10824657;33;20063;-72
2021/12/04 12:55:23;;;;;;;7.87;4.30;;;8.20;82.60;;;;;;10863769;32;20376;-72
2021/12/04 13:14:25;;;;;;;11.45;4.65;;;8.10;82.10;;;;;;10870381;32;20461;-68
2021/12/04 13:20:28;;;;;;;9.77;5.37;;;8.10;82.20;;;;;;10869813;32;20055;-68
2021/12/04 13:26:35;;;;;;;7.18;4.78;;;8.00;82.10;;;;;;10865633;32;20067;-68
2021/12/04 13:32:40;;;;;;;7.68;4.40;;;8.00;82.40;;;;;;10830336;33;20050;-68
2021/12/04 13:38:43;;;;;;;9.55;5.95;;;8.10;82.10;;;;;;10881231;32;20093;-68
2021/12/04 13:44:45;;;;;;;7.05;4.07;;;8.10;82.30;;;;;;10829863;33;20024;-68
2021/12/04 13:50:48;;;;;;;7.65;4.80;;;8.10;82.30;;;;;;10829685;33;20024;-68
2021/12/04 13:56:50;;;;;;;7.53;4.70;;;8.10;81.80;;;;;;10829275;33;20028;-68
2021/12/04 14:02:52;;;;;;;10.35;5.03;;;8.10;81.90;;;;;;10829255;33;20046;-68
2021/12/04 14:09:14;;;;;;;8.75;4.80;;;8.10;81.40;;;;;;10829197;33;20032;-68
2021/12/04 14:15:19;;;;;;;10.02;6.07;;;8.00;81.30;;;;;;10825623;33;20090;-68
2021/12/04 14:21:21;;;;;;;10.63;6.50;;;7.90;81.10;;;;;;10828077;32;20043;-68
2021/12/04 14:27:41;;;;;;;7.18;3.95;;;7.90;81.30;;;;;;10828344;33;20028;-68
2021/12/04 14:33:43;;;;;;;8.80;4.45;;;7.90;81.60;;;;;;10827680;33;20054;-69
2021/12/04 14:39:49;;;;;;;5.87;4.18;;;7.90;81.60;;;;;;10828490;33;20054;-69
2021/12/04 14:45:55;;;;;;;9.48;5.50;;;7.90;81.90;;;;;;10828240;33;20032;-70
2021/12/04 14:51:58;;;;;;;9.23;5.43;;;7.90;81.70;;;;;;10827984;33;20028;-68
2021/12/04 14:58:04;;;;;;;12.40;6.95;;;7.80;81.90;;;;;;10826360;33;20388;-70
2021/12/04 15:04:06;;;;;;;10.75;6.03;;;7.80;82.10;;;;;;10827416;33;20176;-70
2021/12/04 15:10:18;;;;;;;10.02;4.87;;;7.80;82.30;;;;;;10827470;33;20063;-70
2021/12/04 15:22:54;;;;;;;12.52;8.13;;;7.90;82.50;;;;;;10872061;32;20066;-70
2021/12/04 15:28:57;;;;;;;10.65;5.93;;;7.90;82.40;;;;;;10861790;32;20081;-70
2021/12/04 15:35:07;;;;;;;7.82;4.18;;;7.90;82.90;;;;;;10835407;32;20066;-70
2021/12/04 15:53:31;;;;;;;5.80;3.92;;;7.70;83.30;;;;;;10828399;32;20312;-69
2021/12/04 15:59:35;;;;;;;5.47;3.50;;;7.70;83.40;;;;;;10799143;32;20028;-70
2021/12/04 16:05:41;;;;;;;10.40;6.28;;;7.80;83.60;;;;;;10788950;33;20090;-70
2021/12/04 16:11:43;;;;;;;6.62;3.83;;;7.70;83.20;;;;;;10791558;33;20063;-70
2021/12/04 16:17:46;;;;;;;7.45;3.90;;;7.70;83.50;;;;;;10823855;33;20058;-69
2021/12/04 16:23:50;;;;;;;8.43;5.40;;;7.70;83.60;;;;;;10825384;33;20028;-69
2021/12/04 16:36:43;;;;;;;10.98;7.85;;;7.70;83.30;;;;;;10826841;32;20333;-73
2021/12/04 16:42:45;;;;;;;8.98;5.78;;;7.60;82.90;;;;;;10825548;32;20036;-74
2021/12/04 16:48:50;;;;;;;7.03;5.03;;;7.50;83.20;;;;;;10826206;32;20075;-73
2021/12/04 17:00:58;;;;;;;6.90;4.65;;;7.60;83.60;;;;;;10824503;32;20367;-74
2021/12/04 17:07:02;;;;;;;7.30;4.57;;;7.60;83.50;;;;;;10823819;33;20070;-73
2021/12/04 17:13:05;;;;;;;9.88;5.43;;;7.60;83.70;;;;;;10823530;33;20044;-70
2021/12/04 17:19:09;;;;;;;6.28;4.07;;;7.60;83.90;;;;;;10823795;33;20059;-70
2021/12/04 17:25:11;;;;;;;6.72;4.28;;;7.70;83.90;;;;;;10823307;33;20427;-70
2021/12/04 17:31:16;;;;;;;7.15;4.70;;;7.70;83.90;;;;;;10823863;33;20411;-70
2021/12/04 17:37:20;;;;;;;9.23;5.62;;;7.70;83.90;;;;;;10873769;32;20043;-70
2021/12/04 17:43:22;;;;;;;9.82;5.95;;;7.70;83.80;;;;;;10813568;27;20036;-69
2021/12/04 17:49:26;;;;;;;12.98;8.50;;;7.50;83.40;;;;;;10786582;32;20016;-74
2021/12/04 17:55:28;;;;;;;13.70;7.10;;;7.40;83.20;;;;;;10787292;33;20047;-74
2021/12/04 18:01:49;;;;;;;11.07;6.12;;;7.30;82.80;;;;;;10779570;33;20055;-74
2021/12/04 18:07:56;;;;;;;8.68;5.70;;;7.30;83.40;;;;;;10792786;32;20051;-73
2021/12/04 18:14:10;;;;;;;9.02;6.47;;;7.40;83.50;;;;;;10788298;33;20051;-74
2021/12/04 18:20:12;;;;;;;8.25;5.85;;;7.30;83.40;;;;;;10791819;33;20392;-74
2021/12/04 18:26:14;;;;;;;11.95;9.80;;;7.20;83.10;;;;;;10791947;32;20047;-73
2021/12/04 18:32:17;;;;;;;8.80;7.47;;;7.20;83.10;;;;;;10792073;32;20455;-74
2021/12/04 18:38:20;;;;;;;11.27;6.15;;;7.20;83.20;;;;;;10791870;33;20043;-74
2021/12/04 18:44:23;;;;;;;9.20;5.50;;;7.20;83.40;;;;;;10778612;32;20062;-74
2021/12/04 18:50:34;;;;;;;7.35;5.25;;;7.20;82.90;;;;;;10791568;33;20012;-74
2021/12/04 18:56:37;;;;;;;8.85;5.60;;;7.20;83.10;;;;;;10791375;33;20459;-74
2021/12/04 19:02:42;;;;;;;8.85;4.95;;;7.20;83.20;;;;;;10791052;33;20348;-74
2021/12/04 19:08:47;;;;;;;7.60;4.37;;;7.20;83.20;;;;;;10777525;33;20028;-74
2021/12/04 19:14:49;;;;;;;9.20;6.62;;;7.20;83.50;;;;;;10777532;33;20028;-74
2021/12/04 19:20:54;;;;;;;7.35;4.60;;;7.30;83.10;;;;;;10786494;32;20047;-74
2021/12/04 19:26:57;;;;;;;8.70;5.47;;;7.20;83.20;;;;;;10790309;33;20090;-74
2021/12/04 19:33:11;;;;;;;10.40;5.03;;;7.20;83.30;;;;;;10790165;33;20047;-74
2021/12/04 19:52:00;;;;;;;8.93;5.68;;;7.20;83.50;;;;;;10788485;32;20364;-74
2021/12/04 19:58:04;;;;;;;7.97;5.05;;;7.20;83.60;;;;;;10789365;33;20025;-74
2021/12/04 20:16:39;;;;;;;13.77;5.85;;;7.20;83.90;;;;;;10788973;33;20345;-74
2021/12/04 20:22:42;;;;;;;9.20;6.57;;;7.20;83.80;;;;;;10787822;33;20032;-74
2021/12/04 21:12:40;;;;;;;11.30;7.80;;;6.70;83.90;;;;;;10786682;32;20047;-75
2021/12/04 21:50:12;;;;;;;7.85;4.93;;;6.50;84.80;;;;;;10792627;33;20054;-69
2021/12/04 22:15:36;;;;;;;7.03;4.32;;;6.70;85.00;;;;;;10792556;32;20054;-69
2021/12/04 22:22:13;;;;;;;7.60;4.78;;;6.70;85.00;;;;;;10779177;33;20287;-69
2021/12/04 22:59:47;;;;;;;5.72;4.05;;;6.90;85.50;;;;;;10791239;33;20032;-69
2021/12/04 23:12:24;;;;;;;8.25;5.28;;;7.00;85.20;;;;;;10790889;33;20039;-69
2021/12/04 23:18:42;;;;;;;8.05;5.45;;;6.90;85.60;;;;;;10758500;32;20025;-69
2021/12/04 23:43:48;;;;;;;8.70;5.30;;;7.00;85.50;;;;;;10749506;33;20064;-69
